ingv.it alexa rank chart, ingv.it alexa rank daily changes

ingv.it alexa rank chart, ingv.it alexa rank daily changes

ingv.it
Actual rank:
79 237

RANK HISTORY

Date Rank Diff
2018/05/25 79 237 +29 995
2018/05/24 49 242 +29 378
2018/05/23 19 864 -55 538
2018/05/22 75 402 +43 315
2018/05/21 32 087 -26 395
2018/05/20 58 482 +3 311
2018/05/19 55 171 +10 401
2018/05/18 44 770 +1 054
2018/05/17 43 716 -18 744
2018/05/16 62 460 -12 172
2018/05/15 74 632 +23 465
2018/05/14 51 167 -512
2018/05/13 51 679 +10 899
2018/05/12 40 780 +7 899
2018/05/11 32 881 -6 025
2018/05/10 38 906 +3 090
2018/05/09 35 816 -50 374
2018/05/08 86 190 +61 311
2018/05/07 24 879 -20 501
2018/05/06 45 380 -1 125
2018/05/05 46 505 +2 015
2018/05/04 44 490 +18 972
2018/05/03 25 518 -27 455
2018/05/02 52 973 -10 964
2018/05/01 63 937 -11 501
2018/04/30 75 438 +39 474
2018/04/29 35 964 +7 698
2018/04/28 28 266 -29 389
2018/04/27 57 655 +27 333
2018/04/26 30 322 -9 308
2018/04/25 39 630 -26 481
2018/04/24 66 111 +8 456
2018/04/23 57 655 -3 999
2018/04/22 61 654 +26 922
2018/04/21 34 732 -6 564
2018/04/20 41 296 -3 821
2018/04/19 45 117 -14 330
2018/04/18 59 447 -21 985
2018/04/17 81 432 +36 088
2018/04/16 45 344 -4 609
2018/04/15 49 953 +21 302
2018/04/14 28 651 +5 369
2018/04/13 23 282 +11 195
2018/04/12 12 087 -28 914
2018/04/11 41 001 -6 095
2018/04/10 47 096 -25 939
2018/04/09 73 035 +44 367
2018/04/08 28 668 -1 177
2018/04/07 29 845 +6 822
2018/04/06 23 023 -13 986
2018/04/05 37 009 -7 186
2018/04/04 44 195 -66 428
2018/04/03 110 623 +86 102
2018/04/02 24 521 -22 567
2018/04/01 47 088 -7 399
2018/03/31 54 487 -3 373
2018/03/30 57 860 +11 398
2018/03/29 46 462 -36 807
2018/03/28 83 269 +16 933
2018/03/27 66 336 +40 437
2018/03/26 25 899

WIDGET FOR YOUR SITE

DOMAINS WITH THE NEAREST RANK

Domain Rank
midland.com.hk 79 232
rocketjumpninja.com 79 233
qt86.com 79 234
hanimesubth.com 79 235
xcmg.com 79 236
ingv.it 79 237
kuna.net.kw 79 238
istipress.com 79 239
foursigmatic.com 79 240
evergreen.edu 79 241
mann.tv 79 242

DOMAINS WITH THE NEAREST RANK BY TLD .it

Domain Rank
istitutomajorana.it 78 649
meteogiornale.it 78 915
volksbank.it 78 916
bikeitalia.it 79 116
turbolab.it 79 142
ingv.it 79 237
liketoknow.it 79 488
agenziaentrate.it 79 740
tempi.it 79 742
powned.it 79 861
chiesacattolica.it 80 064